< < Back
Terminal Aerodrome Forecast


Current Version              Previous Versions:   1  2  3  4  5  6  7  8  9  

Terminal Aerodrome Forecast

994
FTUS42 KGSP 011727
TAFAVL
TAF
KAVL 011727Z 0118/0218 21004KT P6SM FEW070
     FM012000 20004KT P6SM BKN050
     FM020900 00000KT 4SM BR BKN080
     FM021100 00000KT 2SM BR SCT003 BKN250
     FM021300 33003KT P6SM BKN250=

Latest METAR

589
SAUS70 KWBC 021000 RRG
MTRAVL
METAR KAVL 020954Z AUTO 00000KT 10SM CLR 18/17 A3019 RMK AO2 SLP195
T01830172


USA.gov is the U.S. government's official web portal to all federal, state and local government web resources and services.